»·PEaware :: N7697G L88-KSBP

N7697G :: L88-KSBP

FLIGHT INFORMATION

Flight Status: Arrived
Operator: Privately registered:
United States
More flights under this callsign
Pilot: Carlos P. (20373)
Aircraft: CESSNA 172 SKYHAWK
(C172)
More flights by this aircraft type
Origin: L88 New Cuyama
United States
Destination: KSBP San Luis Co Regl
United States
More flights between these airports :: More routes between these airports
Route: DIRECT
File this flight plan on PilotEdge
Remarks:
Altitude:
(Current/Filed)
7,500ft
Speed:
(Current/Filed)
115kts
Departed: 08-Sep-18 12:42 PM
Arrived: 08-Sep-18 01:35 PM
Distance/Time
Traveled:
50nm/0:53
Distance/Time
To Go:
Arrived

Flight Plot

Page will automatically refresh every two minutes.


Map Options




Map Legend


Flown Route
Filed Route
Departure Airport
Arrival Airport
Navaid (VOR, NDB)
Fix

Horizontal Profiles

Position Reports

Time Latitude Longitude Heading Altitude Ground
Speed
08-Sep-18 12:38 34.942944 -119.690645 207 2207ft 0kts
08-Sep-18 12:39 34.942939 -119.690649 209 2207ft 0kts
08-Sep-18 12:40 34.942939 -119.690649 209 2207ft 0kts
08-Sep-18 12:41 34.942939 -119.690649 209 2207ft 0kts
08-Sep-18 12:42 34.942578 -119.691191 161 2207ft 0kts
08-Sep-18 12:43 34.940078 -119.685902 115 2207ft 38kts
08-Sep-18 12:44 34.938527 -119.682117 296 2207ft 53kts
08-Sep-18 12:45 34.947044 -119.704711 291 2901ft 81kts
08-Sep-18 12:46 34.955133 -119.729990 292 3718ft 81kts
08-Sep-18 12:47 34.963824 -119.755387 286 4491ft 81kts
08-Sep-18 12:48 34.971364 -119.781640 290 5203ft 83kts
08-Sep-18 12:49 34.980760 -119.807183 287 5917ft 85kts
08-Sep-18 12:50 34.989492 -119.833922 290 6660ft 84kts
08-Sep-18 12:51 34.998553 -119.860459 287 7350ft 85kts
08-Sep-18 12:52 35.007074 -119.887343 287 7992ft 86kts
08-Sep-18 12:53 35.017393 -119.917299 291 7892ft 96kts
08-Sep-18 12:54 35.026888 -119.947675 288 7825ft 96kts
08-Sep-18 12:55 35.036401 -119.977923 287 7762ft 95kts
08-Sep-18 12:56 35.044805 -120.008539 290 7704ft 95kts
08-Sep-18 12:57 35.054129 -120.038534 292 7656ft 94kts
08-Sep-18 12:58 35.063314 -120.068440 287 7616ft 93kts
08-Sep-18 12:59 35.071649 -120.098310 287 7580ft 93kts
08-Sep-18 13:00 35.079636 -120.128288 289 7551ft 92kts
08-Sep-18 13:01 35.088038 -120.157907 290 7526ft 92kts
08-Sep-18 13:02 35.096269 -120.187116 289 7502ft 92kts
08-Sep-18 13:03 35.106940 -120.215476 287 7486ft 92kts
08-Sep-18 13:04 35.116461 -120.243941 292 7493ft 88kts
08-Sep-18 13:05 35.125898 -120.272481 290 6915ft 90kts
08-Sep-18 13:06 35.134141 -120.300902 289 6411ft 89kts
08-Sep-18 13:07 35.142218 -120.328876 293 5928ft 86kts
08-Sep-18 13:08 35.150002 -120.356245 290 5456ft 85kts
08-Sep-18 13:09 35.157887 -120.383325 290 4987ft 84kts
08-Sep-18 13:10 35.165902 -120.410013 294 4534ft 83kts
08-Sep-18 13:11 35.173652 -120.436112 292 4100ft 82kts
08-Sep-18 13:12 35.183353 -120.459993 340 3751ft 75kts
08-Sep-18 13:13 35.186708 -120.459671 9 3720ft 81kts
08-Sep-18 13:14 35.193453 -120.455549 18 3698ft 80kts
08-Sep-18 13:15 35.186425 -120.433902 200 3568ft 89kts
08-Sep-18 13:16 35.185586 -120.456860 286 3401ft 75kts
08-Sep-18 13:17 35.187221 -120.464584 291 3393ft 74kts
08-Sep-18 13:20 35.201290 -120.452103 54 3359ft 96kts
08-Sep-18 13:21 35.209539 -120.420421 78 3341ft 102kts
08-Sep-18 13:22 35.197618 -120.392380 165 3314ft 103kts
08-Sep-18 13:23 35.180328 -120.405121 248 3274ft 84kts
08-Sep-18 13:24 35.168279 -120.429615 243 3274ft 85kts
08-Sep-18 13:25 35.160204 -120.454573 289 3245ft 77kts
08-Sep-18 13:26 35.168116 -120.478485 314 3185ft 77kts
08-Sep-18 13:27 35.161635 -120.496658 176 3232ft 93kts
08-Sep-18 13:28 35.152215 -120.503916 358 3210ft 78kts
08-Sep-18 13:29 35.172829 -120.495354 6 3361ft 75kts
08-Sep-18 13:30 35.169077 -120.501319 147 3605ft 87kts
08-Sep-18 13:31 35.170348 -120.513123 317 3388ft 91kts
08-Sep-18 13:32 35.181596 -120.540740 302 2746ft 100kts
08-Sep-18 13:33 35.196304 -120.568933 306 1887ft 98kts
08-Sep-18 13:34 35.210883 -120.594969 307 1141ft 88kts
08-Sep-18 13:35 35.223005 -120.615924 308 627ft 64kts
08-Sep-18 13:36 35.230645 -120.629338 309 318ft 43kts
08-Sep-18 13:36 35.235450 -120.637606 306 215ft 33kts
08-Sep-18 13:37 35.237542 -120.639898 8 215ft 0kts
08-Sep-18 13:39 35.237542 -120.639898 8 215ft 0kts

Navigation Log

Ident Type
1. L88 Airport
2. KSBP Airport